createdAt,value
2023-05-12T00:00:27.377Z,2.85
2023-05-12T00:03:49.695Z,2.30
2023-05-12T00:07:12.494Z,2.90
2023-05-12T00:10:38.397Z,2.50
2023-05-12T00:14:00.526Z,2.30
2023-05-12T00:17:23.857Z,2.42
2023-05-12T00:20:45.981Z,2.63
2023-05-12T00:24:08.186Z,2.47
2023-05-12T00:27:32.172Z,2.80
2023-05-12T00:30:54.281Z,2.47
2023-05-12T00:34:17.848Z,2.50
2023-05-12T00:37:39.332Z,2.03
2023-05-12T00:41:00.946Z,2.20
2023-05-12T00:44:23.095Z,2.22
2023-05-12T00:47:46.238Z,2.30
2023-05-12T00:51:10.244Z,2.40
2023-05-12T00:54:32.776Z,3.20
2023-05-12T00:57:54.642Z,2.35
2023-05-12T01:01:16.648Z,2.70
2023-05-12T01:04:40.745Z,2.33
2023-05-12T01:08:04.868Z,2.40
2023-05-12T01:11:26.914Z,2.13
2023-05-12T01:14:49.091Z,2.65
2023-05-12T01:18:14.036Z,2.55
2023-05-12T01:21:35.865Z,2.80
2023-05-12T01:25:01.318Z,2.35
2023-05-12T01:28:24.868Z,2.20
2023-05-12T01:31:47.436Z,2.22
2023-05-12T01:35:10.069Z,2.33
2023-05-12T01:38:31.853Z,2.45
2023-05-12T01:41:53.611Z,2.40
2023-05-12T01:45:16.722Z,2.67
2023-05-12T01:48:38.889Z,2.28
2023-05-12T01:52:00.528Z,2.28
2023-05-12T01:55:22.391Z,2.08
2023-05-12T01:58:44.111Z,1.98
2023-05-12T02:02:07.504Z,2.80
2023-05-12T02:05:29.448Z,3.58
2023-05-12T02:08:51.204Z,7.93
2023-05-12T02:12:13.616Z,15.93
2023-05-12T02:15:35.875Z,13.93
2023-05-12T02:18:59.127Z,17.42
2023-05-12T02:22:21.359Z,29.67
2023-05-12T02:25:43.372Z,50.20
2023-05-12T02:29:05.517Z,35.13
2023-05-12T02:32:28.779Z,24.55
2023-05-12T02:35:52.348Z,12.15
2023-05-12T02:39:14.269Z,7.75
2023-05-12T02:42:38.561Z,7.68
2023-05-12T02:46:00.712Z,8.20
2023-05-12T02:49:22.664Z,7.07
2023-05-12T02:52:45.907Z,5.13
2023-05-12T02:56:08.790Z,3.40
2023-05-12T02:59:30.852Z,4.35
2023-05-12T03:02:52.759Z,2.80
2023-05-12T03:06:14.407Z,3.30
2023-05-12T03:09:37.645Z,3.25
2023-05-12T03:12:59.588Z,2.92
2023-05-12T03:16:21.245Z,3.00
2023-05-12T03:19:43.542Z,3.70
2023-05-12T03:23:05.637Z,2.72
2023-05-12T03:26:28.778Z,3.80
2023-05-12T03:29:50.957Z,3.53
2023-05-12T03:33:13.140Z,3.72
2023-05-12T03:36:35.514Z,4.00
2023-05-12T03:39:57.335Z,3.63
2023-05-12T03:43:21.353Z,3.85
2023-05-12T03:46:43.230Z,4.20
2023-05-12T03:50:05.155Z,4.00
2023-05-12T03:53:26.890Z,3.85
2023-05-12T03:56:48.975Z,4.28
2023-05-12T04:00:13.535Z,4.28
2023-05-12T04:03:35.733Z,4.03
2023-05-12T04:06:57.388Z,3.97
2023-05-12T04:10:19.831Z,3.80
2023-05-12T04:13:42.252Z,3.15
2023-05-12T04:17:06.050Z,2.95
2023-05-12T04:20:27.816Z,2.60
2023-05-12T04:23:52.895Z,3.17
2023-05-12T04:27:14.529Z,2.97
2023-05-12T04:30:36.602Z,3.63
2023-05-12T04:33:59.886Z,2.70
2023-05-12T04:37:22.480Z,3.40
2023-05-12T04:40:44.583Z,3.00
2023-05-12T04:44:07.202Z,3.15
2023-05-12T04:47:29.614Z,2.90
2023-05-12T04:50:53.070Z,3.45
2023-05-12T04:54:15.073Z,4.50
2023-05-12T04:57:36.855Z,4.78
2023-05-12T05:00:58.773Z,5.68
2023-05-12T05:04:21.063Z,4.28
2023-05-12T05:07:44.519Z,4.30
2023-05-12T05:11:06.478Z,4.38
2023-05-12T05:14:28.223Z,4.47
2023-05-12T05:17:50.263Z,3.38
2023-05-12T05:21:12.057Z,4.15
2023-05-12T05:24:35.574Z,4.20
2023-05-12T05:27:58.267Z,3.65
2023-05-12T05:31:20.523Z,4.03
2023-05-12T05:34:42.371Z,3.80
2023-05-12T05:38:04.051Z,3.10
2023-05-12T05:41:27.184Z,3.97
2023-05-12T05:44:49.245Z,3.47
2023-05-12T05:48:11.299Z,3.85
2023-05-12T05:51:33.446Z,4.57
2023-05-12T05:54:55.075Z,4.35
2023-05-12T05:58:18.444Z,13.07
2023-05-12T06:01:40.363Z,4.65
2023-05-12T06:05:02.197Z,3.00
2023-05-12T06:08:23.993Z,2.75
2023-05-12T06:11:45.937Z,2.75
2023-05-12T06:15:10.573Z,2.28
2023-05-12T06:18:34.031Z,2.58
2023-05-12T06:21:56.058Z,2.72
2023-05-12T06:25:18.631Z,3.22
2023-05-12T06:28:40.592Z,2.65
2023-05-12T06:32:03.960Z,3.00
2023-05-12T06:35:25.952Z,2.10
2023-05-12T06:38:47.756Z,2.25
2023-05-12T06:42:11.543Z,2.30
2023-05-12T06:45:33.556Z,2.10
2023-05-12T06:48:56.850Z,2.58
2023-05-12T06:52:20.647Z,2.00
2023-05-12T06:55:44.308Z,2.35
2023-05-12T06:59:06.180Z,2.70
2023-05-12T07:02:28.199Z,2.50
2023-05-12T07:05:51.640Z,2.60
2023-05-12T07:09:14.358Z,2.97
2023-05-12T07:12:36.530Z,2.42
2023-05-12T07:15:58.913Z,2.67
2023-05-12T07:19:20.680Z,2.22
2023-05-12T07:22:44.196Z,3.17
2023-05-12T07:26:07.785Z,2.58
2023-05-12T07:29:29.593Z,2.55
2023-05-12T07:32:51.425Z,2.85
2023-05-12T07:36:13.308Z,2.35
2023-05-12T07:39:36.656Z,2.53
2023-05-12T07:42:58.556Z,2.33
2023-05-12T07:46:20.460Z,2.60
2023-05-12T07:49:42.026Z,2.30
2023-05-12T07:53:04.398Z,2.72
2023-05-12T07:56:27.527Z,2.83
2023-05-12T07:59:49.604Z,2.47
2023-05-12T08:03:11.333Z,2.20
2023-05-12T08:06:33.842Z,2.65
2023-05-12T08:09:55.705Z,2.30
2023-05-12T08:13:18.958Z,2.05
2023-05-12T08:16:41.184Z,1.90
2023-05-12T08:20:04.464Z,2.80
2023-05-12T08:23:26.481Z,2.45
2023-05-12T08:26:48.615Z,1.92
2023-05-12T08:30:14.030Z,2.10
2023-05-12T08:33:36.143Z,3.13
2023-05-12T08:36:57.983Z,2.70
2023-05-12T08:40:23.292Z,2.60
2023-05-12T08:43:46.660Z,3.10
2023-05-12T08:47:10.627Z,1.95
2023-05-12T08:50:33.795Z,2.70
2023-05-12T08:53:57.225Z,2.75
2023-05-12T08:57:19.467Z,2.25
2023-05-12T09:00:43.121Z,1.77
2023-05-12T09:04:07.599Z,1.67
2023-05-12T09:07:29.500Z,1.95
2023-05-12T09:10:51.956Z,2.00
2023-05-12T09:14:19.084Z,2.00
2023-05-12T09:17:41.070Z,2.22
2023-05-12T09:21:04.623Z,2.53
2023-05-12T09:24:36.496Z,2.47
2023-05-12T09:27:58.554Z,2.03
2023-05-12T09:31:22.583Z,2.13
2023-05-12T09:34:44.877Z,2.17
2023-05-12T09:38:09.806Z,2.55
2023-05-12T09:41:31.975Z,2.45
2023-05-12T09:44:53.712Z,2.17
2023-05-12T09:48:15.670Z,2.40
2023-05-12T09:51:37.497Z,2.13
2023-05-12T09:55:10.132Z,2.40
2023-05-12T09:58:32.537Z,2.58
2023-05-12T10:01:58.873Z,2.60
2023-05-12T10:05:23.544Z,2.70
2023-05-12T10:08:52.778Z,2.30
2023-05-12T10:12:17.670Z,2.42
2023-05-12T10:15:40.151Z,3.85
2023-05-12T10:19:04.405Z,3.58
2023-05-12T10:22:28.002Z,2.47
2023-05-12T10:25:51.023Z,3.45
2023-05-12T10:29:15.089Z,1.70
2023-05-12T10:32:37.247Z,2.10
2023-05-12T10:35:59.053Z,2.33
2023-05-12T10:39:20.924Z,2.50
2023-05-12T10:42:43.760Z,2.28
2023-05-12T10:46:19.294Z,2.30
2023-05-12T10:49:42.336Z,3.78
2023-05-12T10:53:04.417Z,2.53
2023-05-12T10:56:28.392Z,2.10
2023-05-12T10:59:51.929Z,2.00
2023-05-12T11:03:19.548Z,2.47
2023-05-12T11:06:43.085Z,2.08
2023-05-12T11:10:07.834Z,2.20
2023-05-12T11:13:30.569Z,1.50
2023-05-12T11:16:52.494Z,2.00
2023-05-12T11:20:24.937Z,2.10
2023-05-12T11:23:52.169Z,2.35
2023-05-12T11:27:15.230Z,2.00
2023-05-12T11:30:37.074Z,1.85
2023-05-12T11:34:11.909Z,2.33
2023-05-12T11:37:39.565Z,2.58
2023-05-12T11:41:01.367Z,2.13
2023-05-12T11:44:24.364Z,2.42
2023-05-12T11:47:46.123Z,2.58
2023-05-12T11:51:09.310Z,3.15
2023-05-12T11:54:32.810Z,2.20
2023-05-12T11:58:00.143Z,2.20
2023-05-12T12:01:21.830Z,2.10
2023-05-12T12:04:43.714Z,7.65
2023-05-12T12:08:10.417Z,3.33
2023-05-12T12:11:34.862Z,2.22
2023-05-12T12:15:00.100Z,3.10
2023-05-12T12:18:22.352Z,2.70
2023-05-12T12:21:44.715Z,2.45
2023-05-12T12:25:07.944Z,2.10
2023-05-12T12:28:31.203Z,2.28
2023-05-12T12:31:53.496Z,2.05
2023-05-12T12:35:15.722Z,2.00
2023-05-12T12:38:38.122Z,2.13
2023-05-12T12:42:00.065Z,2.17
2023-05-12T12:45:23.552Z,1.90
2023-05-12T12:48:45.609Z,2.03
2023-05-12T12:52:07.757Z,2.15
2023-05-12T12:55:29.430Z,2.33
2023-05-12T12:58:51.367Z,2.13
2023-05-12T13:02:14.719Z,1.90
2023-05-12T13:05:36.818Z,1.90
2023-05-12T13:08:58.802Z,3.08
2023-05-12T13:12:20.989Z,1.83
2023-05-12T13:15:45.028Z,1.67
2023-05-12T13:19:08.623Z,1.90
2023-05-12T13:22:30.918Z,1.80
2023-05-12T13:25:53.021Z,1.98
2023-05-12T13:29:14.975Z,2.25
2023-05-12T13:32:37.203Z,2.30
2023-05-12T13:36:00.363Z,2.20
2023-05-12T13:39:21.976Z,2.72
2023-05-12T13:42:43.632Z,2.20
2023-05-12T13:46:05.549Z,4.13
2023-05-12T13:49:27.305Z,2.80
2023-05-12T13:52:50.481Z,7.28
2023-05-12T13:56:12.247Z,3.53
2023-05-12T13:59:34.138Z,5.50
2023-05-12T14:02:56.542Z,3.30
2023-05-12T14:06:18.480Z,2.95
2023-05-12T14:09:41.734Z,6.38
2023-05-12T14:13:03.762Z,5.03
2023-05-12T14:16:25.598Z,7.88
2023-05-12T14:19:47.756Z,5.93
2023-05-12T14:23:09.515Z,4.50
2023-05-12T14:26:32.831Z,2.45
2023-05-12T14:29:54.887Z,3.40
2023-05-12T14:33:16.917Z,3.33
2023-05-12T14:36:38.746Z,5.22
2023-05-12T14:40:00.403Z,5.30
2023-05-12T14:43:23.687Z,2.55
2023-05-12T14:46:45.717Z,2.72
2023-05-12T14:50:08.537Z,5.63
2023-05-12T14:53:31.369Z,3.15
2023-05-12T14:56:53.249Z,2.58
2023-05-12T15:00:17.539Z,7.32
2023-05-12T15:03:39.260Z,6.28
2023-05-12T15:07:00.837Z,2.50
2023-05-12T15:10:22.930Z,4.00
2023-05-12T15:13:44.653Z,4.72
2023-05-12T15:17:08.562Z,5.43
2023-05-12T15:20:30.346Z,3.70
2023-05-12T15:23:52.121Z,2.13
2023-05-12T15:27:14.288Z,2.60
2023-05-12T15:30:37.217Z,2.20
2023-05-12T15:34:00.747Z,2.25
2023-05-12T15:37:23.208Z,2.42
2023-05-12T15:40:46.205Z,2.42
2023-05-12T15:44:08.092Z,2.03
2023-05-12T15:47:30.255Z,2.67
2023-05-12T15:50:53.630Z,2.58
2023-05-12T15:54:15.816Z,2.60
2023-05-12T15:57:37.580Z,2.22
2023-05-12T16:00:59.815Z,1.98
2023-05-12T16:04:23.609Z,2.22
2023-05-12T16:07:48.643Z,2.00
2023-05-12T16:11:10.698Z,8.13
2023-05-12T16:14:32.668Z,4.82
2023-05-12T16:17:54.757Z,3.05
2023-05-12T16:21:16.375Z,2.30
2023-05-12T16:24:39.679Z,2.75
2023-05-12T16:28:01.712Z,2.20
2023-05-12T16:31:23.918Z,2.38
2023-05-12T16:34:45.688Z,1.90
2023-05-12T16:38:07.412Z,3.88
2023-05-12T16:41:30.631Z,3.45
2023-05-12T16:44:54.740Z,2.50
2023-05-12T16:48:16.755Z,3.83
2023-05-12T16:51:38.970Z,2.88
2023-05-12T16:55:00.956Z,1.92
2023-05-12T16:58:24.606Z,2.15
2023-05-12T17:01:47.214Z,1.77
2023-05-12T17:05:09.807Z,1.50
2023-05-12T17:08:31.715Z,3.08
2023-05-12T17:11:53.773Z,2.05
2023-05-12T17:15:17.872Z,2.22
2023-05-12T17:22:04.961Z,2.10
2023-05-12T17:25:29.605Z,1.67
2023-05-12T17:28:51.633Z,2.40
2023-05-12T17:32:15.108Z,2.28
2023-05-12T17:35:37.337Z,2.20
2023-05-12T17:38:59.324Z,1.75
2023-05-12T17:42:21.195Z,1.77
2023-05-12T17:45:43.048Z,1.85
2023-05-12T17:49:07.275Z,1.90
2023-05-12T17:52:29.257Z,1.77
2023-05-12T17:55:51.416Z,2.67
2023-05-12T17:59:13.613Z,2.92
2023-05-12T18:02:35.783Z,3.00
2023-05-12T18:05:59.530Z,2.80
2023-05-12T18:09:23.541Z,2.38
2023-05-12T18:12:45.491Z,3.70
2023-05-12T18:16:12.889Z,3.08
2023-05-12T18:19:43.125Z,3.70
2023-05-12T18:23:07.271Z,3.17
2023-05-12T18:26:29.133Z,3.13
2023-05-12T18:29:50.787Z,4.30
2023-05-12T18:33:12.812Z,3.88
2023-05-12T18:36:34.566Z,6.60
2023-05-12T18:39:58.505Z,5.25
2023-05-12T18:43:20.622Z,5.50
2023-05-12T18:46:42.383Z,5.22
2023-05-12T18:50:04.439Z,4.03
2023-05-12T18:53:26.432Z,4.43
2023-05-12T18:56:50.961Z,3.08
2023-05-12T19:00:13.677Z,3.30
2023-05-12T19:03:37.315Z,3.45
2023-05-12T19:06:59.183Z,3.30
2023-05-12T19:10:21.594Z,3.10
2023-05-12T19:13:45.490Z,2.88
2023-05-12T19:17:08.195Z,2.80
2023-05-12T19:20:31.465Z,3.63
2023-05-12T19:23:53.368Z,3.40
2023-05-12T19:27:15.339Z,4.10
2023-05-12T19:30:39.225Z,4.68
2023-05-12T19:34:01.150Z,5.50
2023-05-12T19:37:23.189Z,5.40
2023-05-12T19:40:44.927Z,6.00
2023-05-12T19:44:06.797Z,4.80
2023-05-12T19:47:30.801Z,3.60
2023-05-12T19:50:52.634Z,3.47
2023-05-12T19:54:14.496Z,3.53
2023-05-12T19:57:37.793Z,3.25
2023-05-12T20:00:59.668Z,2.55
2023-05-12T20:04:22.902Z,2.30
2023-05-12T20:07:46.024Z,2.13
2023-05-12T20:11:08.471Z,1.85
2023-05-12T20:14:30.564Z,1.77
2023-05-12T20:17:52.504Z,1.80
2023-05-12T20:21:15.634Z,1.90
2023-05-12T20:24:37.802Z,1.58
2023-05-12T20:27:59.984Z,1.50
2023-05-12T20:31:22.464Z,1.90
2023-05-12T20:34:44.782Z,2.17
2023-05-12T20:38:08.389Z,1.60
2023-05-12T20:41:31.300Z,2.13
2023-05-12T20:44:53.886Z,1.70
2023-05-12T20:48:15.661Z,2.10
2023-05-12T20:51:37.755Z,1.63
2023-05-12T20:55:01.778Z,1.65
2023-05-12T20:58:23.650Z,2.17
2023-05-12T21:01:45.484Z,1.95
2023-05-12T21:05:07.989Z,1.85
2023-05-12T21:08:29.934Z,2.13
2023-05-12T21:11:53.170Z,2.10
2023-05-12T21:15:15.518Z,2.10
2023-05-12T21:18:38.162Z,2.17
2023-05-12T21:21:59.954Z,2.25
2023-05-12T21:25:22.152Z,2.30
2023-05-12T21:28:45.697Z,3.03
2023-05-12T21:32:08.647Z,4.05
2023-05-12T21:35:30.677Z,4.75
2023-05-12T21:38:52.604Z,4.07
2023-05-12T21:42:14.480Z,5.57
2023-05-12T21:45:37.772Z,6.25
2023-05-12T21:48:59.277Z,7.03
2023-05-12T21:52:21.139Z,5.63
2023-05-12T21:55:43.313Z,5.07
2023-05-12T21:59:05.243Z,4.63
2023-05-12T22:02:28.633Z,5.30
2023-05-12T22:05:50.247Z,3.72
2023-05-12T22:09:12.395Z,4.53
2023-05-12T22:12:34.372Z,3.97
2023-05-12T22:15:56.216Z,5.20
2023-05-12T22:19:19.707Z,4.70
2023-05-12T22:22:42.651Z,4.55
2023-05-12T22:26:04.662Z,3.63
2023-05-12T22:29:26.278Z,3.75
2023-05-12T22:32:47.931Z,3.42
2023-05-12T22:36:11.581Z,3.30
2023-05-12T22:39:33.550Z,3.38
2023-05-12T22:42:55.339Z,3.67
2023-05-12T22:46:16.931Z,3.70
2023-05-12T22:49:39.230Z,3.53
2023-05-12T22:53:02.470Z,3.55
2023-05-12T22:56:24.678Z,3.03
2023-05-12T22:59:46.842Z,3.20
2023-05-12T23:03:08.713Z,2.50
2023-05-12T23:06:31.254Z,3.08
2023-05-12T23:09:54.594Z,2.90
2023-05-12T23:13:16.797Z,3.00
2023-05-12T23:16:38.824Z,2.83
2023-05-12T23:20:00.911Z,2.50
2023-05-12T23:23:22.636Z,2.17
2023-05-12T23:26:46.082Z,2.55
2023-05-12T23:30:09.401Z,2.25
2023-05-12T23:33:31.175Z,2.75
2023-05-12T23:36:52.981Z,2.58
2023-05-12T23:40:15.109Z,2.38
2023-05-12T23:43:39.064Z,2.70
2023-05-12T23:47:01.140Z,2.60
2023-05-12T23:50:23.508Z,2.42
2023-05-12T23:53:45.370Z,2.30
2023-05-12T23:57:07.602Z,2.38
